Time;durP1;ratioP1;P1;durP2;ratioP2;P2;SDS_P1;SDS_P2;PMS_P1;PMS_P2;Temp;Humidity;BMP_temperature;BMP_pressure;BME280_temperature;BME280_humidity;BME280_pressure;Samples;Min_cycle;Max_cycle;Signal;HPM_P1;HPM_P2
2023/05/02 08:11:38;;;;;;;13.50;3.65;;;;;;;10.06;100.00;102314.00;4970840;27;4843035;-74
2023/05/02 08:14:03;;;;;;;13.82;2.88;;;;;;;10.05;93.68;102319.59;5114674;28;20621;-74
2023/05/02 08:17:30;;;;;;;;;;;;;;;;;;;;;
2023/05/02 08:19:56;;;;;;;14.13;3.47;;;;;;;9.98;89.72;102321.38;5067018;28;20149;-74
2023/05/02 08:22:21;;;;;;;12.65;3.47;;;;;;;10.01;93.64;102318.28;5089677;28;20111;-74
2023/05/02 08:25:22;;;;;;;14.07;3.67;;;;;;;10.03;86.33;102319.78;5107068;28;20028;-75
2023/05/02 08:27:59;;;;;;;8.68;2.70;;;;;;;10.04;84.08;102337.72;5104900;28;20375;-75
2023/05/02 08:30:27;;;;;;;15.63;3.25;;;;;;;9.99;81.41;102331.16;5090791;28;20477;-76
2023/05/02 08:33:20;;;;;;;8.82;3.13;;;;;;;9.94;78.40;102334.44;5117981;28;20035;-76
2023/05/02 08:36:12;;;;;;;8.52;2.58;;;;;;;10.03;81.17;102346.84;5109622;28;20111;-76
2023/05/02 08:39:08;;;;;;;9.40;2.75;;;;;;;10.07;80.65;102340.03;5091265;28;20024;-76
2023/05/02 08:44:57;;;;;;;8.65;2.63;;;;;;;10.20;79.06;102347.50;5105019;28;20288;-75
2023/05/02 08:47:28;;;;;;;;;;;;;;;10.37;79.13;102360.88;5094745;28;20110;-75
2023/05/02 08:50:00;;;;;;;5.75;2.80;;;;;;;10.36;75.42;102357.34;5090906;28;19916;-76
2023/05/02 08:52:40;;;;;;;9.00;2.70;;;;;;;10.44;72.99;102359.94;5109388;28;20471;-75
2023/05/02 08:55:09;;;;;;;8.45;2.40;;;;;;;10.50;72.27;102357.53;5109082;28;20494;-76
2023/05/02 08:57:35;;;;;;;11.40;2.50;;;;;;;10.55;70.02;102360.50;5090445;28;20102;-76
2023/05/02 09:00:04;;;;;;;11.25;2.85;;;;;;;10.64;72.62;102362.94;5091274;28;20157;-76
2023/05/02 09:03:00;;;;;;;12.00;3.55;;;;;;;10.85;72.87;102374.84;5094575;28;20558;-75
2023/05/02 09:05:29;;;;;;;7.47;2.55;;;;;;;10.75;69.17;102364.31;5100778;28;20055;-75
2023/05/02 09:08:02;;;;;;;8.80;3.08;;;;;;;10.69;69.22;102361.50;5090402;28;20028;-75
2023/05/02 09:10:48;;;;;;;9.55;2.92;;;;;;;10.69;69.23;102375.06;5108716;28;20555;-75
2023/05/02 09:13:36;;;;;;;11.48;3.40;;;;;;;10.75;71.08;102375.16;5091106;28;20471;-75
2023/05/02 09:16:15;;;;;;;11.18;3.00;;;;;;;10.86;70.35;102375.69;5093817;28;20602;-75
2023/05/02 09:19:03;;;;;;;8.35;2.70;;;;;;;10.90;67.15;102376.97;5090238;28;20030;-75
2023/05/02 09:21:42;;;;;;;9.60;2.90;;;;;;;10.88;64.67;102384.47;5101830;28;20047;-75
2023/05/02 09:24:21;;;;;;;11.95;2.90;;;;;;;10.98;65.40;102385.84;5076427;28;20027;-75
2023/05/02 09:27:05;;;;;;;10.60;3.15;;;;;;;11.05;66.35;102383.22;5076639;28;20036;-75
2023/05/02 09:29:37;;;;;;;10.23;2.80;;;;;;;11.16;66.09;102388.13;5076053;28;20051;-75
2023/05/02 09:32:06;;;;;;;8.93;2.70;;;;;;;11.25;64.38;102390.75;5076771;28;20040;-75
2023/05/02 09:34:38;;;;;;;10.18;3.05;;;;;;;11.11;62.65;102389.72;5077080;28;20036;-75
2023/05/02 09:37:07;;;;;;;11.00;2.80;;;;;;;11.15;63.36;102389.16;5076746;28;20071;-75
2023/05/02 09:39:35;;;;;;;12.77;3.17;;;;;;;11.18;63.87;102399.63;5076432;28;20380;-75
2023/05/02 09:42:04;;;;;;;7.65;2.33;;;;;;;11.11;64.43;102404.13;5076885;28;20024;-75
2023/05/02 09:44:37;;;;;;;8.40;2.70;;;;;;;11.17;64.19;102400.66;5097262;28;20120;-75
2023/05/02 09:47:07;;;;;;;11.43;2.75;;;;;;;11.25;62.24;102412.44;5114124;28;20061;-75
2023/05/02 09:49:45;;;;;;;7.97;2.45;;;;;;;11.41;63.32;102412.16;5115303;28;20019;-75
2023/05/02 09:52:12;;;;;;;10.18;2.72;;;;;;;11.55;62.06;102409.59;5115307;28;20027;-77
2023/05/02 09:54:46;;;;;;;9.10;2.70;;;;;;;11.82;63.72;102419.69;5085210;28;20123;-77
2023/05/02 09:57:12;;;;;;;9.77;3.10;;;;;;;12.01;62.74;102423.63;5076443;28;20028;-77
2023/05/02 10:21:15;;;;;;;8.35;3.03;;;;;;;12.07;56.53;102421.16;4942024;23;20549;-76
2023/05/02 10:23:43;;;;;;;10.63;3.15;;;;;;;12.02;57.68;102419.88;4988516;28;20076;-76
2023/05/02 10:26:22;;;;;;;13.13;3.38;;;;;;;12.13;58.71;102418.50;4996818;28;20501;-74
2023/05/02 10:28:48;;;;;;;13.25;3.88;;;;;;;12.09;60.19;102425.34;4995952;28;20030;-77
2023/05/02 10:31:17;;;;;;;10.07;3.47;;;;;;;12.10;60.14;102427.03;5014219;28;20025;-74
2023/05/02 10:33:43;;;;;;;7.22;3.13;;;;;;;12.01;59.70;102434.47;4990700;28;20033;-74
2023/05/02 10:36:14;;;;;;;10.40;3.30;;;;;;;11.88;59.40;102451.44;5014558;28;20029;-76
2023/05/02 10:38:44;;;;;;;12.88;3.30;;;;;;;11.76;60.06;102431.31;4997752;28;20061;-74
2023/05/02 10:41:18;;;;;;;8.10;2.60;;;;;;;11.83;60.07;102431.34;5003414;28;20374;-75
2023/05/02 10:43:48;;;;;;;9.13;3.00;;;;;;;11.90;61.48;102434.97;5006587;28;20030;-74
2023/05/02 10:50:02;;;;;;;9.68;3.03;;;;;;;11.94;59.22;102436.31;4951382;28;20474;-76
2023/05/02 10:52:47;;;;;;;11.38;3.40;;;;;;;11.95;59.14;102429.00;4944708;29;20035;-77
2023/05/02 10:55:45;;;;;;;;;;;;;;;;;;;;;
2023/05/02 10:58:20;;;;;;;9.77;3.15;;;;;;;12.18;58.81;102432.31;4988889;28;20520;-77
2023/05/02 11:00:45;;;;;;;7.82;2.95;;;;;;;12.37;57.19;102438.91;4985819;28;20018;-82
2023/05/02 11:03:11;;;;;;;9.70;3.05;;;;;;;12.41;55.76;102445.63;5011470;28;20077;-71
2023/05/02 11:06:06;;;;;;;8.70;3.03;;;;;;;12.54;57.49;102442.16;5012796;28;20057;-73
2023/05/02 11:08:31;;;;;;;11.65;3.08;;;;;;;12.50;54.04;102440.91;4993832;28;20034;-74
2023/05/02 11:11:35;;;;;;;8.68;3.08;;;;;;;12.54;56.54;102442.16;5013244;28;20371;-72
2023/05/02 11:14:01;;;;;;;7.45;2.88;;;;;;;12.38;53.63;102447.94;5003284;28;20030;-77
2023/05/02 11:16:26;;;;;;;8.52;2.90;;;;;;;12.21;53.29;102442.78;4991679;28;20496;-71
2023/05/02 11:18:59;;;;;;;6.25;2.75;;;;;;;12.33;52.58;102448.50;4991714;28;20045;-71
2023/05/02 11:21:37;;;;;;;8.65;2.80;;;;;;;12.30;51.88;102442.63;5007077;28;20104;-76
2023/05/02 11:24:43;;;;;;;8.07;2.80;;;;;;;12.45;53.43;102450.69;4977612;28;20485;-74
2023/05/02 11:27:37;;;;;;;8.00;2.90;;;;;;;12.67;54.68;102467.75;4993609;28;20081;-75
2023/05/02 11:30:33;;;;;;;7.93;2.53;;;;;;;12.54;54.55;102458.44;4981077;28;20038;-75
2023/05/02 11:33:04;;;;;;;8.20;2.85;;;;;;;12.34;53.88;102450.19;4993322;28;20038;-77
2023/05/02 11:35:36;;;;;;;7.78;2.97;;;;;;;12.31;53.83;102444.31;4974880;28;20067;-74
2023/05/02 11:38:20;;;;;;;7.18;2.75;;;;;;;12.33;53.52;102443.06;5002991;28;20458;-76
2023/05/02 11:40:53;;;;;;;7.85;3.25;;;;;;;12.59;54.36;102442.41;4995805;28;20076;-80
2023/05/02 11:43:28;;;;;;;9.82;3.25;;;;;;;12.59;53.23;102434.28;5013611;28;20025;-77
2023/05/02 11:46:35;;;;;;;;;;;;;;;;;;;;;
2023/05/02 11:49:07;;;;;;;11.88;3.00;;;;;;;12.28;52.46;102452.84;5012097;28;20064;-76
2023/05/02 11:51:36;;;;;;;11.73;3.22;;;;;;;12.21;52.32;102442.78;4994192;28;20041;-76
2023/05/02 11:54:02;;;;;;;9.75;3.25;;;;;;;12.17;53.21;102446.91;4994875;28;20386;-76
2023/05/02 11:56:34;;;;;;;10.80;2.70;;;;;;;12.20;53.11;102449.25;4990672;28;20030;-77
2023/05/02 11:59:44;;;;;;;;;;;;;;;;;;;;;
2023/05/02 12:02:52;;;;;;;8.07;2.95;;;;;;;12.65;51.61;102450.78;5005023;28;20045;-75
2023/05/02 12:15:43;;;;;;;59.15;6.60;;;;;;;12.52;50.90;102473.28;4895496;29;20394;-75
2023/05/02 12:18:18;;;;;;;9.02;2.60;;;;;;;12.39;51.18;102469.44;4913369;29;20036;-76
2023/05/02 12:20:46;;;;;;;11.68;3.15;;;;;;;12.71;51.05;102474.44;4912077;29;20411;-74
2023/05/02 12:27:34;;;;;;;10.00;2.85;;;;;;;13.06;51.05;102480.72;4872917;29;20033;-77
2023/05/02 12:33:44;;;;;;;6.30;2.80;;;;;;;13.60;50.49;102486.38;4838309;29;20128;-75
2023/05/02 12:36:22;;;;;;;4.90;2.42;;;;;;;13.86;49.31;102495.63;4838933;29;20160;-82
2023/05/02 12:41:54;;;;;;;9.57;2.90;;;;;;;14.03;47.87;102485.22;4904369;29;20047;-73
2023/05/02 12:44:35;;;;;;;10.40;3.10;;;;;;;14.06;48.41;102495.69;4922757;28;20553;-75
2023/05/02 12:47:01;;;;;;;10.80;2.80;;;;;;;13.93;48.67;102497.31;4962804;28;20409;-75
2023/05/02 12:49:26;;;;;;;8.55;3.03;;;;;;;13.90;48.72;102510.50;4973089;28;20023;-76
2023/05/02 12:51:54;;;;;;;7.32;2.80;;;;;;;14.04;47.51;102497.75;4971660;28;20034;-76
2023/05/02 12:55:16;;;;;;;8.55;2.72;;;;;;;13.97;47.72;102504.03;4970993;28;20031;-78
2023/05/02 12:57:42;;;;;;;8.27;2.90;;;;;;;14.18;46.67;102499.44;4971815;28;20031;-75
2023/05/02 13:00:08;;;;;;;8.98;3.08;;;;;;;14.53;46.65;102497.34;4965700;28;20435;-74
2023/05/02 13:13:43;;;;;;;;;;;;;;;;;;;;;
2023/05/02 13:17:00;;;;;;;9.60;2.92;;;;;;;13.77;45.34;102514.06;4944332;29;20462;-77
2023/05/02 13:19:34;;;;;;;7.47;2.40;;;;;;;13.98;45.80;102499.44;4954008;29;20035;-77
2023/05/02 13:22:03;;;;;;;7.07;2.90;;;;;;;14.21;45.03;102504.47;4966955;28;20381;-76
2023/05/02 13:24:43;;;;;;;9.73;2.80;;;;;;;14.32;46.06;102501.13;4962310;28;20124;-76
2023/05/02 13:40:35;;;;;;;6.97;2.80;;;;;;;14.23;42.85;102496.94;4995821;28;20124;-76
2023/05/02 13:43:01;;;;;;;9.43;3.13;;;;;;;14.31;43.55;102510.34;4977889;28;20113;-77
2023/05/02 13:45:28;;;;;;;4.60;2.50;;;;;;;14.50;43.82;102507.81;4975907;28;20033;-73
2023/05/02 13:47:55;;;;;;;8.13;2.83;;;;;;;14.62;43.87;102506.16;4993510;28;20023;-74
2023/05/02 13:50:21;;;;;;;7.95;3.40;;;;;;;14.71;43.45;102504.88;4975203;28;20058;-75
2023/05/02 13:52:46;;;;;;;7.70;3.00;;;;;;;14.99;43.57;102506.53;4977218;28;20061;-75
2023/05/02 13:55:13;;;;;;;7.10;2.63;;;;;;;14.94;42.22;102514.47;4977534;28;20030;-74
2023/05/02 13:57:42;;;;;;;7.30;2.58;;;;;;;14.96;41.81;102506.94;4977897;28;20385;-75
2023/05/02 14:00:08;;;;;;;8.13;3.00;;;;;;;15.05;41.82;102505.66;4977602;28;20418;-75
2023/05/02 14:02:35;;;;;;;6.72;2.60;;;;;;;14.96;41.26;102511.53;4975721;28;20030;-74
2023/05/02 14:05:00;;;;;;;8.23;3.10;;;;;;;14.82;41.09;102516.19;4971972;28;20030;-75
2023/05/02 14:07:25;;;;;;;6.53;2.67;;;;;;;15.11;41.50;102508.56;4995002;28;20073;-75
2023/05/02 14:09:51;;;;;;;7.40;2.58;;;;;;;15.27;40.86;102513.53;4994851;28;20026;-74
2023/05/02 14:12:16;;;;;;;7.25;2.85;;;;;;;15.41;41.35;102504.25;4977394;28;20039;-74
2023/05/02 14:14:41;;;;;;;9.73;2.85;;;;;;;15.44;41.31;102500.25;4969981;28;20538;-74
2023/05/02 14:17:10;;;;;;;12.80;2.90;;;;;;;15.48;41.63;102497.94;4975431;28;20467;-74
2023/05/02 14:19:35;;;;;;;12.25;3.35;;;;;;;15.40;42.23;102491.66;4958122;28;20033;-74
2023/05/02 14:22:03;;;;;;;8.73;3.00;;;;;;;15.35;40.78;102494.22;4998410;28;20045;-73
2023/05/02 14:24:29;;;;;;;11.95;2.90;;;;;;;15.13;41.10;102496.41;4995988;28;20493;-74
2023/05/02 14:26:54;;;;;;;7.43;2.83;;;;;;;15.03;42.67;102499.56;4987841;28;20030;-76
2023/05/02 14:29:20;;;;;;;5.25;2.92;;;;;;;14.84;41.47;102498.59;4992981;28;20068;-74
2023/05/02 14:31:45;;;;;;;10.07;3.10;;;;;;;14.95;42.29;102496.25;5013632;28;20212;-74
2023/05/02 14:34:11;;;;;;;9.68;3.00;;;;;;;15.05;42.82;102494.75;4996790;28;20446;-75
2023/05/02 14:36:47;;;;;;;6.65;2.80;;;;;;;15.27;41.88;102496.34;4992542;28;20482;-77
2023/05/02 14:39:14;;;;;;;8.05;3.10;;;;;;;15.54;41.05;102488.88;4996322;28;20553;-75
2023/05/02 14:41:40;;;;;;;7.43;2.80;;;;;;;15.89;40.22;102493.94;4997372;28;20104;-76
2023/05/02 14:44:17;;;;;;;6.32;2.63;;;;;;;16.30;39.57;102485.22;4991818;28;20026;-76
2023/05/02 14:47:09;;;;;;;7.93;2.88;;;;;;;17.03;38.87;102499.25;5015480;28;20045;-77
2023/05/02 14:49:34;;;;;;;6.85;2.92;;;;;;;17.62;37.05;102495.94;5002235;28;20072;-74
2023/05/02 14:52:00;;;;;;;6.22;3.10;;;;;;;17.52;35.98;102497.34;4995155;28;20061;-76
2023/05/02 14:54:27;;;;;;;6.72;3.00;;;;;;;17.32;37.00;102502.25;5012875;28;20153;-76
2023/05/02 14:56:52;;;;;;;9.32;3.10;;;;;;;17.36;36.83;102495.25;4995876;28;20026;-76
2023/05/02 15:00:11;;;;;;;7.30;3.10;;;;;;;18.06;38.37;102491.13;4995856;28;20462;-80
2023/05/02 15:02:37;;;;;;;7.50;3.03;;;;;;;18.34;35.08;102492.34;5011114;28;20037;-77
2023/05/02 15:05:11;;;;;;;8.10;3.17;;;;;;;18.68;34.90;102487.09;4996259;28;20033;-78
2023/05/02 15:07:37;;;;;;;12.27;3.47;;;;;;;19.04;34.57;102487.91;4990706;28;20034;-75
2023/05/02 15:10:02;;;;;;;8.63;3.38;;;;;;;19.26;33.65;102488.09;5000191;28;20037;-76
2023/05/02 15:12:28;;;;;;;8.70;2.90;;;;;;;19.62;33.58;102492.34;4994434;28;20030;-74
2023/05/02 15:14:53;;;;;;;8.38;3.45;;;;;;;19.51;32.62;102496.00;5007151;28;20026;-79
2023/05/02 15:17:20;;;;;;;7.05;2.92;;;;;;;19.66;32.16;102495.44;5011192;28;20120;-77
2023/05/02 15:19:45;;;;;;;6.78;2.90;;;;;;;19.32;32.31;102508.25;4994093;28;20102;-76
2023/05/02 15:22:14;;;;;;;6.05;2.65;;;;;;;19.14;32.79;102499.09;4997166;28;20457;-75
2023/05/02 15:24:40;;;;;;;8.73;3.20;;;;;;;18.93;32.83;102493.19;5009329;28;20499;-75
2023/05/02 15:27:05;;;;;;;7.72;2.78;;;;;;;19.36;32.78;102487.47;4975675;28;20032;-78
2023/05/02 15:29:30;;;;;;;6.55;2.80;;;;;;;19.60;32.49;102493.69;4975775;28;20431;-78
2023/05/02 15:31:56;;;;;;;9.35;2.95;;;;;;;19.71;32.00;102491.97;4975812;28;20023;-73
2023/05/02 15:34:21;;;;;;;7.95;2.75;;;;;;;20.04;33.14;102493.94;5004615;28;20493;-77
2023/05/02 15:36:47;;;;;;;7.13;3.03;;;;;;;20.03;31.51;102502.44;5031189;28;20056;-79
2023/05/02 15:39:18;;;;;;;6.85;3.03;;;;;;;19.77;31.41;102504.72;5009506;28;20121;-76
2023/05/02 15:41:46;;;;;;;6.68;3.08;;;;;;;19.48;31.35;102496.47;4994532;28;20065;-79
2023/05/02 15:44:14;;;;;;;8.35;3.28;;;;;;;19.67;32.49;102502.59;4988881;28;20049;-75
2023/05/02 15:46:45;;;;;;;9.82;3.40;;;;;;;19.71;32.59;102502.94;5032288;28;20033;-77
2023/05/02 15:49:10;;;;;;;10.18;3.65;;;;;;;19.61;32.17;102501.69;5014698;28;20033;-78
2023/05/02 15:51:39;;;;;;;11.63;3.60;;;;;;;19.51;33.04;102498.72;5021937;28;20034;-76
2023/05/02 15:54:05;;;;;;;10.10;3.53;;;;;;;19.32;32.83;102497.25;5011998;28;20057;-76
2023/05/02 15:56:31;;;;;;;12.38;3.85;;;;;;;18.93;33.80;102506.03;5004241;28;20036;-75
2023/05/02 15:58:57;;;;;;;8.65;3.38;;;;;;;18.39;34.56;102511.66;4986122;28;20456;-74
2023/05/02 16:01:23;;;;;;;10.65;3.70;;;;;;;17.85;34.90;102512.47;5010376;28;20029;-76
2023/05/02 16:03:48;;;;;;;11.15;3.75;;;;;;;17.32;35.59;102502.25;4993749;28;20026;-76
2023/05/02 16:06:15;;;;;;;11.25;3.60;;;;;;;17.12;36.67;102514.28;5000122;28;20112;-74
